LIML/LIN METAR and TAF weather

Enter ICAO airport designator
Station Type Date Time Source
LIML METAR 2019/07/31 15:50 UTC NOAA

LIML 311550Z 23006KT 160V270 9999 SCT050 29/18 Q1012 NOSIG


Station Type Date Time Source
LIML Decoded METAR 2019/07/31 15:50 UTC NOAA

Milano / Linate, Italy (LIML) 45-26N 009-17E 103M
Jul 31, 2019 - 11:50 AM EDT / 2019.07.31 1550 UTC
Wind: from the SW (230 degrees) at 7 MPH (6 KT) (direction variable):0
Visibility: greater than 7 mile(s):0
Sky conditions: partly cloudy
Temperature: 84 F (29 C)
Dew Point: 64 F (18 C)
Relative Humidity: 51%
Pressure (altimeter): 29.88 in. Hg (1012 hPa)
ob: LIML 311550Z 23006KT 160V270 9999 SCT050 29/18 Q1012 NOSIG
cycle: 16

Station Type Date Time Source
LIML TAF 2019/07/26 18:21 UTC NOAA

TAF LIML 261700Z 2618/2718 VRB05KT 9999 SCT050
TEMPO 2709/2718 3000 TSRA SCT010CB BKN040

Example: see airport list